Aviation Digital Data Service (ADDS)

Output produced by METARs form (0747 UTC 18 February 2019)
found at http://www.aviationweather.gov/metar/data/
 
METAR text: LIED 180655Z 04004KT 9999 FEW010 03/02 Q1025 RMK SCT VIS MIN 9999 WIND THR35 /////KT WIND THR17 /////KT BLU
Conditions at: LIED (DECIMOMANNU(IT-A, IT) observed 0655 UTC 18 February 2019
Temperature: 3.0°C (37°F)
Dewpoint: 2.0°C (36°F) [RH = 93%]
Pressure (altimeter): 30.27 inches Hg (1025.0 mb)
Winds: from the NE (40 degrees) at 5 MPH (4 knots; 2.1 m/s)
Visibility: 6 or more miles (10+ km)
Ceiling: at least 12,000 feet AGL
Clouds: few clouds at 1000 feet AGL
Weather: no significant weather observed at this time

METAR text: LIED 180555Z 35004KT 9999 FEW010 02/01 Q1025 RMK FEW VIS MIN 9999 WIND THR35 /////KT WIND THR17 /////KT BLU
Conditions at: LIED (DECIMOMANNU(IT-A, IT) observed 0555 UTC 18 February 2019
Temperature: 2.0°C (36°F)
Dewpoint: 1.0°C (34°F) [RH = 93%]
Pressure (altimeter): 30.27 inches Hg (1025.0 mb)
Winds: from the N (350 degrees) at 5 MPH (4 knots; 2.1 m/s)
Visibility: 6 or more miles (10+ km)
Ceiling: at least 12,000 feet AGL
Clouds: few clouds at 1000 feet AGL
Weather: no significant weather observed at this time

METAR text: LIED 180455Z 04005KT 9999 SCT030 04/02 Q1025 RMK SCT VIS MIN 9999 WIND THR35 /////KT WIND THR17 /////KT BLU
Conditions at: LIED (DECIMOMANNU(IT-A, IT) observed 0455 UTC 18 February 2019
Temperature: 4.0°C (39°F)
Dewpoint: 2.0°C (36°F) [RH = 87%]
Pressure (altimeter): 30.27 inches Hg (1025.0 mb)
Winds: from the NE (40 degrees) at 6 MPH (5 knots; 2.6 m/s)
Visibility: 6 or more miles (10+ km)
Ceiling: at least 12,000 feet AGL
Clouds: scattered clouds at 3000 feet AGL
Weather: no significant weather observed at this time

METAR text: LIED 180355Z 31003KT 9999 SCT030 04/02 Q1025 RMK SCT VIS MIN 9999 WIND THR35 /////KT WIND THR17 /////KT BLU
Conditions at: LIED (DECIMOMANNU(IT-A, IT) observed 0355 UTC 18 February 2019
Temperature: 4.0°C (39°F)
Dewpoint: 2.0°C (36°F) [RH = 87%]
Pressure (altimeter): 30.27 inches Hg (1025.0 mb)
Winds: from the NW (310 degrees) at 3 MPH (3 knots; 1.5 m/s)
Visibility: 6 or more miles (10+ km)
Ceiling: at least 12,000 feet AGL
Clouds: scattered clouds at 3000 feet AGL
Weather: no significant weather observed at this time

METAR text: LIED 180255Z 33003KT 9999 SCT030 04/02 Q1025 RMK SCT VIS MIN 9999 WIND THR35 /////KT WIND THR17 /////KT BLU
Conditions at: LIED (DECIMOMANNU(IT-A, IT) observed 0255 UTC 18 February 2019
Temperature: 4.0°C (39°F)
Dewpoint: 2.0°C (36°F) [RH = 87%]
Pressure (altimeter): 30.27 inches Hg (1025.0 mb)
Winds: from the NNW (330 degrees) at 3 MPH (3 knots; 1.5 m/s)
Visibility: 6 or more miles (10+ km)
Ceiling: at least 12,000 feet AGL
Clouds: scattered clouds at 3000 feet AGL
Weather: no significant weather observed at this time

METAR text: LIED 180155Z 02004KT 9999 SCT030 05/04 Q1026 RMK SCT VIS MIN 9999 WIND THR35 /////KT WIND THR17 /////KT BLU
Conditions at: LIED (DECIMOMANNU(IT-A, IT) observed 0155 UTC 18 February 2019
Temperature: 5.0°C (41°F)
Dewpoint: 4.0°C (39°F) [RH = 93%]
Pressure (altimeter): 30.30 inches Hg (1026.0 mb)
Winds: from the NNE (20 degrees) at 5 MPH (4 knots; 2.1 m/s)
Visibility: 6 or more miles (10+ km)
Ceiling: at least 12,000 feet AGL
Clouds: scattered clouds at 3000 feet AGL
Weather: no significant weather observed at this time

METAR text: LIED 180055Z 35004KT 9999 SCT025 05/04 Q1026 RMK SCT VIS MIN 9999 WIND THR35 /////KT WIND THR17 /////KT BLU
Conditions at: LIED (DECIMOMANNU(IT-A, IT) observed 0055 UTC 18 February 2019
Temperature: 5.0°C (41°F)
Dewpoint: 4.0°C (39°F) [RH = 93%]
Pressure (altimeter): 30.30 inches Hg (1026.0 mb)
Winds: from the N (350 degrees) at 5 MPH (4 knots; 2.1 m/s)
Visibility: 6 or more miles (10+ km)
Ceiling: at least 12,000 feet AGL
Clouds: scattered clouds at 2500 feet AGL
Weather: no significant weather observed at this time

METAR text: LIED 172355Z 27003KT CAVOK 05/04 Q1027 RMK SKC VIS MIN 9999 WIND THR35 /////KT WIND THR17 /////KT BLU
Conditions at: LIED (DECIMOMANNU(IT-A, IT) observed 2355 UTC 17 February 2019
Temperature: 5.0°C (41°F)
Dewpoint: 4.0°C (39°F) [RH = 93%]
Pressure (altimeter): 30.32 inches Hg (1027.0 mb)
Winds: from the W (270 degrees) at 3 MPH (3 knots; 1.5 m/s)
Visibility: 6 or more miles (10+ km)
Ceiling: ceiling and visibility are OK
Clouds: unknown
Weather: no significant weather observed at this time

METAR text: LIED 172255Z 33002KT CAVOK 05/04 Q1027 RMK SKC VIS MIN 9999 WIND THR35 /////KT WIND THR17 /////KT BLU
Conditions at: LIED (DECIMOMANNU(IT-A, IT) observed 2255 UTC 17 February 2019
Temperature: 5.0°C (41°F)
Dewpoint: 4.0°C (39°F) [RH = 93%]
Pressure (altimeter): 30.32 inches Hg (1027.0 mb)
Winds: from the NNW (330 degrees) at 2 MPH (2 knots; 1.0 m/s)
Visibility: 6 or more miles (10+ km)
Ceiling: ceiling and visibility are OK
Clouds: unknown
Weather: no significant weather observed at this time

METAR text: LIED 172155Z 02002KT CAVOK 05/03 Q1027 RMK SKC VIS MIN 9999 WIND THR35 /////KT WIND THR17 /////KT BLU
Conditions at: LIED (DECIMOMANNU(IT-A, IT) observed 2155 UTC 17 February 2019
Temperature: 5.0°C (41°F)
Dewpoint: 3.0°C (37°F) [RH = 87%]
Pressure (altimeter): 30.32 inches Hg (1027.0 mb)
Winds: from the NNE (20 degrees) at 2 MPH (2 knots; 1.0 m/s)
Visibility: 6 or more miles (10+ km)
Ceiling: ceiling and visibility are OK
Clouds: unknown
Weather: no significant weather observed at this time

METAR text: LIED 172055Z 08006KT CAVOK 07/05 Q1027 RMK SKC VIS MIN 9999 WIND THR35 /////KT WIND THR17 /////KT BLU
Conditions at: LIED (DECIMOMANNU(IT-A, IT) observed 2055 UTC 17 February 2019
Temperature: 7.0°C (45°F)
Dewpoint: 5.0°C (41°F) [RH = 87%]
Pressure (altimeter): 30.32 inches Hg (1027.0 mb)
Winds: from the E (80 degrees) at 7 MPH (6 knots; 3.1 m/s)
Visibility: 6 or more miles (10+ km)
Ceiling: ceiling and visibility are OK
Clouds: unknown
Weather: no significant weather observed at this time

METAR text: LIED 171955Z 09006KT CAVOK 07/05 Q1027 RMK SKC VIS MIN 9999 WIND THR35 /////KT WIND THR17 /////KT BLU
Conditions at: LIED (DECIMOMANNU(IT-A, IT) observed 1955 UTC 17 February 2019
Temperature: 7.0°C (45°F)
Dewpoint: 5.0°C (41°F) [RH = 87%]
Pressure (altimeter): 30.32 inches Hg (1027.0 mb)
Winds: from the E (90 degrees) at 7 MPH (6 knots; 3.1 m/s)
Visibility: 6 or more miles (10+ km)
Ceiling: ceiling and visibility are OK
Clouds: unknown
Weather: no significant weather observed at this time

METAR text: LIED 171855Z 08004KT CAVOK 08/06 Q1027 RMK SKC VIS MIN 9999 WIND THR35 /////KT WIND THR17 /////KT BLU
Conditions at: LIED (DECIMOMANNU(IT-A, IT) observed 1855 UTC 17 February 2019
Temperature: 8.0°C (46°F)
Dewpoint: 6.0°C (43°F) [RH = 87%]
Pressure (altimeter): 30.32 inches Hg (1027.0 mb)
Winds: from the E (80 degrees) at 5 MPH (4 knots; 2.1 m/s)
Visibility: 6 or more miles (10+ km)
Ceiling: ceiling and visibility are OK
Clouds: unknown
Weather: no significant weather observed at this time

METAR text: LIED 171755Z 13005KT CAVOK 15/14 Q1026 RMK FEW FEW100 VIS MIN 9999 WIND THR35 /////KT WIND THR17 /////KT BLU
Conditions at: LIED (DECIMOMANNU(IT-A, IT) observed 1755 UTC 17 February 2019
Temperature: 15.0°C (59°F)
Dewpoint: 14.0°C (57°F) [RH = 94%]
Pressure (altimeter): 30.30 inches Hg (1026.0 mb)
Winds: from the SE (130 degrees) at 6 MPH (5 knots; 2.6 m/s)
Visibility: 6 or more miles (10+ km)
Ceiling: ceiling and visibility are OK
Clouds: unknown
Weather: no significant weather observed at this time

METAR text: LIED 171655Z 15009KT CAVOK 12/10 Q1026 RMK FEW FEW100 VIS MIN 9999 WIND THR35 /////KT WIND THR17 /////KT BLU
Conditions at: LIED (DECIMOMANNU(IT-A, IT) observed 1655 UTC 17 February 2019
Temperature: 12.0°C (54°F)
Dewpoint: 10.0°C (50°F) [RH = 88%]
Pressure (altimeter): 30.30 inches Hg (1026.0 mb)
Winds: from the SSE (150 degrees) at 10 MPH (9 knots; 4.6 m/s)
Visibility: 6 or more miles (10+ km)
Ceiling: ceiling and visibility are OK
Clouds: unknown
Weather: no significant weather observed at this time

METAR text: LIED 171555Z 14010KT CAVOK 14/10 Q1026 RMK FEW FEW090 VIS MIN 9999 WIND THR35 /////KT WIND THR17 /////KT BLU
Conditions at: LIED (DECIMOMANNU(IT-A, IT) observed 1555 UTC 17 February 2019
Temperature: 14.0°C (57°F)
Dewpoint: 10.0°C (50°F) [RH = 77%]
Pressure (altimeter): 30.30 inches Hg (1026.0 mb)
Winds: from the SE (140 degrees) at 12 MPH (10 knots; 5.1 m/s)
Visibility: 6 or more miles (10+ km)
Ceiling: ceiling and visibility are OK
Clouds: unknown
Weather: no significant weather observed at this time

METAR text: LIED 171455Z 14010KT CAVOK 15/11 Q1026 RMK FEW FEW090 VIS MIN 9999 WIND THR35 /////KT WIND THR17 /////KT BLU
Conditions at: LIED (DECIMOMANNU(IT-A, IT) observed 1455 UTC 17 February 2019
Temperature: 15.0°C (59°F)
Dewpoint: 11.0°C (52°F) [RH = 77%]
Pressure (altimeter): 30.30 inches Hg (1026.0 mb)
Winds: from the SE (140 degrees) at 12 MPH (10 knots; 5.1 m/s)
Visibility: 6 or more miles (10+ km)
Ceiling: ceiling and visibility are OK
Clouds: unknown
Weather: no significant weather observed at this time

METAR text: LIED 171355Z 15010KT 9999 FEW020 15/11 Q1027 RMK FEW VIS MIN 9999 WIND THR35 /////KT WIND THR17 /////KT BLU
Conditions at: LIED (DECIMOMANNU(IT-A, IT) observed 1355 UTC 17 February 2019
Temperature: 15.0°C (59°F)
Dewpoint: 11.0°C (52°F) [RH = 77%]
Pressure (altimeter): 30.32 inches Hg (1027.0 mb)
Winds: from the SSE (150 degrees) at 12 MPH (10 knots; 5.1 m/s)
Visibility: 6 or more miles (10+ km)
Ceiling: at least 12,000 feet AGL
Clouds: few clouds at 2000 feet AGL
Weather: no significant weather observed at this time

METAR text: LIED 171255Z 15009KT 9999 FEW020 15/10 Q1027 RMK FEW VIS MIN 9999 WIND THR35 /////KT WIND THR17 /////KT BLU
Conditions at: LIED (DECIMOMANNU(IT-A, IT) observed 1255 UTC 17 February 2019
Temperature: 15.0°C (59°F)
Dewpoint: 10.0°C (50°F) [RH = 72%]
Pressure (altimeter): 30.32 inches Hg (1027.0 mb)
Winds: from the SSE (150 degrees) at 10 MPH (9 knots; 4.6 m/s)
Visibility: 6 or more miles (10+ km)
Ceiling: at least 12,000 feet AGL
Clouds: few clouds at 2000 feet AGL
Weather: no significant weather observed at this time

METAR text: LIED 171155Z 17008KT 9999 FEW020 15/09 Q1029 RMK FEW VIS MIN 9999 WIND THR35 /////KT WIND THR17 /////KT BLU
Conditions at: LIED (DECIMOMANNU(IT-A, IT) observed 1155 UTC 17 February 2019
Temperature: 15.0°C (59°F)
Dewpoint: 9.0°C (48°F) [RH = 67%]
Pressure (altimeter): 30.38 inches Hg (1029.0 mb)
Winds: from the S (170 degrees) at 9 MPH (8 knots; 4.1 m/s)
Visibility: 6 or more miles (10+ km)
Ceiling: at least 12,000 feet AGL
Clouds: few clouds at 2000 feet AGL
Weather: no significant weather observed at this time

METAR text: LIED 171055Z 15006KT 9999 FEW020 14/09 Q1029 RMK FEW VIS MIN 9999 WIND THR35 /////KT WIND THR17 /////KT BLU
Conditions at: LIED (DECIMOMANNU(IT-A, IT) observed 1055 UTC 17 February 2019
Temperature: 14.0°C (57°F)
Dewpoint: 9.0°C (48°F) [RH = 72%]
Pressure (altimeter): 30.38 inches Hg (1029.0 mb)
Winds: from the SSE (150 degrees) at 7 MPH (6 knots; 3.1 m/s)
Visibility: 6 or more miles (10+ km)
Ceiling: at least 12,000 feet AGL
Clouds: few clouds at 2000 feet AGL
Weather: no significant weather observed at this time

METAR text: LIED 170955Z 29003KT 9999 FEW030 12/10 Q1029 RMK FEW VIS MIN 9999 WIND THR35 /////KT WIND THR17 /////KT BLU
Conditions at: LIED (DECIMOMANNU(IT-A, IT) observed 0955 UTC 17 February 2019
Temperature: 12.0°C (54°F)
Dewpoint: 10.0°C (50°F) [RH = 88%]
Pressure (altimeter): 30.38 inches Hg (1029.0 mb)
Winds: from the WNW (290 degrees) at 3 MPH (3 knots; 1.5 m/s)
Visibility: 6 or more miles (10+ km)
Ceiling: at least 12,000 feet AGL
Clouds: few clouds at 3000 feet AGL
Weather: no significant weather observed at this time

METAR text: LIED 170855Z 33002KT CAVOK 09/07 Q1029 RMK SKC VIS MIN 9999 WIND THR35 /////KT WIND THR17 /////KT BLU
Conditions at: LIED (DECIMOMANNU(IT-A, IT) observed 0855 UTC 17 February 2019
Temperature: 9.0°C (48°F)
Dewpoint: 7.0°C (45°F) [RH = 87%]
Pressure (altimeter): 30.38 inches Hg (1029.0 mb)
Winds: from the NNW (330 degrees) at 2 MPH (2 knots; 1.0 m/s)
Visibility: 6 or more miles (10+ km)
Ceiling: ceiling and visibility are OK
Clouds: unknown
Weather: no significant weather observed at this time

METAR text: LIED 170755Z 01002KT 9999 FEW030 05/03 Q1030 RMK FEW VIS MIN 9999 WIND THR35 /////KT WIND THR17 /////KT BLU
Conditions at: LIED (DECIMOMANNU(IT-A, IT) observed 0755 UTC 17 February 2019
Temperature: 5.0°C (41°F)
Dewpoint: 3.0°C (37°F) [RH = 87%]
Pressure (altimeter): 30.41 inches Hg (1030.0 mb)
Winds: from the N (10 degrees) at 2 MPH (2 knots; 1.0 m/s)
Visibility: 6 or more miles (10+ km)
Ceiling: at least 12,000 feet AGL
Clouds: few clouds at 3000 feet AGL
Weather: no significant weather observed at this time

METAR text: LIED 170655Z 31003KT 9999 2000E BR SCT004 03/02 Q1029 RMK SCT VIS MIN 2000E WIND THR35 /////KT WIND THR17 /////KT YLO
Conditions at: LIED (DECIMOMANNU(IT-A, IT) observed 0655 UTC 17 February 2019
Temperature: 3.0°C (37°F)
Dewpoint: 2.0°C (36°F) [RH = 93%]
Pressure (altimeter): 30.38 inches Hg (1029.0 mb)
Winds: from the NW (310 degrees) at 3 MPH (3 knots; 1.5 m/s)
Visibility: 6 or more miles (10+ km)
Ceiling: at least 12,000 feet AGL
Clouds: scattered clouds at 400 feet AGL
Weather: BR  (mist)

METAR text: LIED 170555Z 32003KT 9999 FEW001 03/02 Q1029 RMK SCT SCT200 VIS MIN 9999 WIND THR35 /////KT WIND THR17 /////KT BLU
Conditions at: LIED (DECIMOMANNU(IT-A, IT) observed 0555 UTC 17 February 2019
Temperature: 3.0°C (37°F)
Dewpoint: 2.0°C (36°F) [RH = 93%]
Pressure (altimeter): 30.38 inches Hg (1029.0 mb)
Winds: from the NW (320 degrees) at 3 MPH (3 knots; 1.5 m/s)
Visibility: 6 or more miles (10+ km)
Ceiling: at least 12,000 feet AGL
Clouds: few clouds at 100 feet AGL
Weather: no significant weather observed at this time

METAR text: LIED 170455Z 33004KT CAVOK 03/02 Q1028 RMK SKC VIS MIN 9999 WIND THR35 /////KT WIND THR17 /////KT BLU
Conditions at: LIED (DECIMOMANNU(IT-A, IT) observed 0455 UTC 17 February 2019
Temperature: 3.0°C (37°F)
Dewpoint: 2.0°C (36°F) [RH = 93%]
Pressure (altimeter): 30.35 inches Hg (1028.0 mb)
Winds: from the NNW (330 degrees) at 5 MPH (4 knots; 2.1 m/s)
Visibility: 6 or more miles (10+ km)
Ceiling: ceiling and visibility are OK
Clouds: unknown
Weather: no significant weather observed at this time

METAR text: LIED 170355Z 32004KT CAVOK 03/02 Q1028 RMK SKC VIS MIN 9999 WIND THR35 /////KT WIND THR17 /////KT BLU
Conditions at: LIED (DECIMOMANNU(IT-A, IT) observed 0355 UTC 17 February 2019
Temperature: 3.0°C (37°F)
Dewpoint: 2.0°C (36°F) [RH = 93%]
Pressure (altimeter): 30.35 inches Hg (1028.0 mb)
Winds: from the NW (320 degrees) at 5 MPH (4 knots; 2.1 m/s)
Visibility: 6 or more miles (10+ km)
Ceiling: ceiling and visibility are OK
Clouds: unknown
Weather: no significant weather observed at this time

METAR text: LIED 170255Z 33004KT CAVOK 04/02 Q1028 RMK SKC VIS MIN 9999 WIND THR35 /////KT WIND THR17 /////KT BLU
Conditions at: LIED (DECIMOMANNU(IT-A, IT) observed 0255 UTC 17 February 2019
Temperature: 4.0°C (39°F)
Dewpoint: 2.0°C (36°F) [RH = 87%]
Pressure (altimeter): 30.35 inches Hg (1028.0 mb)
Winds: from the NNW (330 degrees) at 5 MPH (4 knots; 2.1 m/s)
Visibility: 6 or more miles (10+ km)
Ceiling: ceiling and visibility are OK
Clouds: unknown
Weather: no significant weather observed at this time

METAR text: LIED 170155Z 32003KT 9999 FEW025 04/03 Q1029 RMK FEW VIS MIN 9999 WIND THR35 /////KT WIND THR17 /////KT BLU
Conditions at: LIED (DECIMOMANNU(IT-A, IT) observed 0155 UTC 17 February 2019
Temperature: 4.0°C (39°F)
Dewpoint: 3.0°C (37°F) [RH = 93%]
Pressure (altimeter): 30.38 inches Hg (1029.0 mb)
Winds: from the NW (320 degrees) at 3 MPH (3 knots; 1.5 m/s)
Visibility: 6 or more miles (10+ km)
Ceiling: at least 12,000 feet AGL
Clouds: few clouds at 2500 feet AGL
Weather: no significant weather observed at this time

METAR text: LIED 170055Z 33002KT 9999 FEW025 05/03 Q1029 RMK FEW VIS MIN 9999 WIND THR35 /////KT WIND THR17 /////KT BLU
Conditions at: LIED (DECIMOMANNU(IT-A, IT) observed 0055 UTC 17 February 2019
Temperature: 5.0°C (41°F)
Dewpoint: 3.0°C (37°F) [RH = 87%]
Pressure (altimeter): 30.38 inches Hg (1029.0 mb)
Winds: from the NNW (330 degrees) at 2 MPH (2 knots; 1.0 m/s)
Visibility: 6 or more miles (10+ km)
Ceiling: at least 12,000 feet AGL
Clouds: few clouds at 2500 feet AGL
Weather: no significant weather observed at this time

METAR text: LIED 162355Z 04003KT 9999 FEW025 06/04 Q1029 RMK FEW VIS MIN 9999 WIND THR35 /////KT WIND THR17 /////KT BLU
Conditions at: LIED (DECIMOMANNU(IT-A, IT) observed 2355 UTC 16 February 2019
Temperature: 6.0°C (43°F)
Dewpoint: 4.0°C (39°F) [RH = 87%]
Pressure (altimeter): 30.38 inches Hg (1029.0 mb)
Winds: from the NE (40 degrees) at 3 MPH (3 knots; 1.5 m/s)
Visibility: 6 or more miles (10+ km)
Ceiling: at least 12,000 feet AGL
Clouds: few clouds at 2500 feet AGL
Weather: no significant weather observed at this time

METAR text: LIED 162255Z 22002KT 9999 FEW025 06/04 Q1030 RMK FEW VIS MIN 9999 WIND THR35 /////KT WIND THR17 /////KT BLU
Conditions at: LIED (DECIMOMANNU(IT-A, IT) observed 2255 UTC 16 February 2019
Temperature: 6.0°C (43°F)
Dewpoint: 4.0°C (39°F) [RH = 87%]
Pressure (altimeter): 30.41 inches Hg (1030.0 mb)
Winds: from the SW (220 degrees) at 2 MPH (2 knots; 1.0 m/s)
Visibility: 6 or more miles (10+ km)
Ceiling: at least 12,000 feet AGL
Clouds: few clouds at 2500 feet AGL
Weather: no significant weather observed at this time

METAR text: LIED 162155Z 02003KT 9999 FEW025 07/06 Q1030 RMK SCT VIS MIN 9999 WIND THR35 /////KT WIND THR17 /////KT BLU
Conditions at: LIED (DECIMOMANNU(IT-A, IT) observed 2155 UTC 16 February 2019
Temperature: 7.0°C (45°F)
Dewpoint: 6.0°C (43°F) [RH = 93%]
Pressure (altimeter): 30.41 inches Hg (1030.0 mb)
Winds: from the NNE (20 degrees) at 3 MPH (3 knots; 1.5 m/s)
Visibility: 6 or more miles (10+ km)
Ceiling: at least 12,000 feet AGL
Clouds: few clouds at 2500 feet AGL
Weather: no significant weather observed at this time

METAR text: LIED 162055Z 15002KT 9999 FEW025 08/06 Q1030 RMK SCT VIS MIN 9999 WIND THR35 /////KT WIND THR17 /////KT BLU
Conditions at: LIED (DECIMOMANNU(IT-A, IT) observed 2055 UTC 16 February 2019
Temperature: 8.0°C (46°F)
Dewpoint: 6.0°C (43°F) [RH = 87%]
Pressure (altimeter): 30.41 inches Hg (1030.0 mb)
Winds: from the SSE (150 degrees) at 2 MPH (2 knots; 1.0 m/s)
Visibility: 6 or more miles (10+ km)
Ceiling: at least 12,000 feet AGL
Clouds: few clouds at 2500 feet AGL
Weather: no significant weather observed at this time

METAR text: LIED 161955Z 15004KT 9999 FEW025 09/08 Q1029 RMK SCT VIS MIN 9999 WIND THR35 /////KT WIND THR17 /////KT BLU
Conditions at: LIED (DECIMOMANNU(IT-A, IT) observed 1955 UTC 16 February 2019
Temperature: 9.0°C (48°F)
Dewpoint: 8.0°C (46°F) [RH = 93%]
Pressure (altimeter): 30.38 inches Hg (1029.0 mb)
Winds: from the SSE (150 degrees) at 5 MPH (4 knots; 2.1 m/s)
Visibility: 6 or more miles (10+ km)
Ceiling: at least 12,000 feet AGL
Clouds: few clouds at 2500 feet AGL
Weather: no significant weather observed at this time

Forecast for: LIED (DECIMOMANNU(IT-A, IT)
Text: TAF LIED 180500Z 1806/1815 VRB03KT 9999 FEW020
Forecast period: 0600 to 1000 UTC 18 February 2019
Forecast type: FROM: standard forecast or significant change
Winds: variable direction winds at 3 MPH (3 knots; 1.5 m/s)
Visibility: 6 or more miles 10+ km)
Ceiling: at least 12,000 feet AGL
Clouds: few clouds at 2000 feet AGL
Weather: no significant weather forecast for this period
Text: BECMG 1810/1812 15012KT
Forecast period: 1000 to 1500 UTC 18 February 2019
Forecast type: BECOMING: Conditions expected to become as follows by 1200 UTC 18 February 2019
Winds: from the SSE (150 degrees) at 14 MPH (12 knots; 6.2 m/s)
Visibility: 6 or more miles 10+ km)
Ceiling: at least 12,000 feet AGL
Clouds: few clouds at 2000 feet AGL
Weather: no significant weather forecast for this period